sensor_id;sensor_type;location;lat;lon;timestamp;P1;durP1;ratioP1;P2;durP2;ratioP2
17365;SDS011;8800;50.118;9.900;2024-01-27T00:01:34;11.27;;;2.88;;
17365;SDS011;8800;50.118;9.900;2024-01-27T00:04:01;9.93;;;2.95;;
17365;SDS011;8800;50.118;9.900;2024-01-27T00:06:27;19.65;;;3.50;;
17365;SDS011;8800;50.118;9.900;2024-01-27T00:08:55;10.23;;;3.38;;
17365;SDS011;8800;50.118;9.900;2024-01-27T00:11:21;20.23;;;4.18;;
17365;SDS011;8800;50.118;9.900;2024-01-27T00:13:49;14.05;;;3.22;;
17365;SDS011;8800;50.118;9.900;2024-01-27T00:16:16;11.15;;;2.75;;
17365;SDS011;8800;50.118;9.900;2024-01-27T00:18:42;10.85;;;3.33;;
17365;SDS011;8800;50.118;9.900;2024-01-27T00:21:09;16.05;;;3.95;;
17365;SDS011;8800;50.118;9.900;2024-01-27T00:23:35;20.05;;;3.80;;
17365;SDS011;8800;50.118;9.900;2024-01-27T00:26:03;15.43;;;3.90;;
17365;SDS011;8800;50.118;9.900;2024-01-27T00:28:30;16.35;;;4.15;;
17365;SDS011;8800;50.118;9.900;2024-01-27T00:30:56;14.50;;;5.85;;
17365;SDS011;8800;50.118;9.900;2024-01-27T00:33:23;23.88;;;6.30;;
17365;SDS011;8800;50.118;9.900;2024-01-27T00:35:50;22.15;;;5.68;;
17365;SDS011;8800;50.118;9.900;2024-01-27T00:38:16;20.13;;;6.30;;
17365;SDS011;8800;50.118;9.900;2024-01-27T00:40:43;23.02;;;6.07;;
17365;SDS011;8800;50.118;9.900;2024-01-27T00:43:11;27.88;;;7.38;;
17365;SDS011;8800;50.118;9.900;2024-01-27T00:45:37;26.63;;;6.78;;
17365;SDS011;8800;50.118;9.900;2024-01-27T00:48:04;21.95;;;4.03;;
17365;SDS011;8800;50.118;9.900;2024-01-27T00:50:31;18.13;;;4.22;;
17365;SDS011;8800;50.118;9.900;2024-01-27T00:52:57;12.25;;;2.97;;
17365;SDS011;8800;50.118;9.900;2024-01-27T00:55:23;17.40;;;4.57;;
17365;SDS011;8800;50.118;9.900;2024-01-27T00:57:58;16.45;;;3.55;;
17365;SDS011;8800;50.118;9.900;2024-01-27T01:00:26;18.80;;;6.63;;
17365;SDS011;8800;50.118;9.900;2024-01-27T01:02:52;20.73;;;6.20;;
17365;SDS011;8800;50.118;9.900;2024-01-27T01:05:19;21.08;;;4.55;;
17365;SDS011;8800;50.118;9.900;2024-01-27T01:07:45;22.20;;;7.55;;
17365;SDS011;8800;50.118;9.900;2024-01-27T01:10:12;21.80;;;6.00;;
17365;SDS011;8800;50.118;9.900;2024-01-27T01:12:38;15.68;;;4.18;;
17365;SDS011;8800;50.118;9.900;2024-01-27T01:15:05;14.73;;;3.50;;
17365;SDS011;8800;50.118;9.900;2024-01-27T01:17:33;13.25;;;3.13;;
17365;SDS011;8800;50.118;9.900;2024-01-27T01:20:00;10.25;;;2.60;;
17365;SDS011;8800;50.118;9.900;2024-01-27T01:22:26;13.95;;;2.28;;
17365;SDS011;8800;50.118;9.900;2024-01-27T01:24:53;11.73;;;1.85;;
17365;SDS011;8800;50.118;9.900;2024-01-27T01:27:19;11.75;;;2.20;;
17365;SDS011;8800;50.118;9.900;2024-01-27T01:29:46;10.82;;;1.83;;
17365;SDS011;8800;50.118;9.900;2024-01-27T01:32:12;13.55;;;2.30;;
17365;SDS011;8800;50.118;9.900;2024-01-27T01:34:40;9.02;;;2.10;;
17365;SDS011;8800;50.118;9.900;2024-01-27T01:37:06;10.63;;;2.40;;
17365;SDS011;8800;50.118;9.900;2024-01-27T01:39:33;9.20;;;2.05;;
17365;SDS011;8800;50.118;9.900;2024-01-27T01:41:59;13.13;;;2.80;;
17365;SDS011;8800;50.118;9.900;2024-01-27T01:44:28;8.40;;;2.83;;
17365;SDS011;8800;50.118;9.900;2024-01-27T01:46:55;16.98;;;5.43;;
17365;SDS011;8800;50.118;9.900;2024-01-27T01:49:22;13.25;;;4.55;;
17365;SDS011;8800;50.118;9.900;2024-01-27T01:51:50;16.60;;;3.78;;
17365;SDS011;8800;50.118;9.900;2024-01-27T01:54:18;12.70;;;4.00;;
17365;SDS011;8800;50.118;9.900;2024-01-27T01:56:44;12.75;;;3.55;;
17365;SDS011;8800;50.118;9.900;2024-01-27T01:59:11;12.48;;;3.53;;
17365;SDS011;8800;50.118;9.900;2024-01-27T02:01:37;10.32;;;2.92;;
17365;SDS011;8800;50.118;9.900;2024-01-27T02:04:04;10.35;;;2.33;;
17365;SDS011;8800;50.118;9.900;2024-01-27T02:06:31;14.80;;;3.08;;
17365;SDS011;8800;50.118;9.900;2024-01-27T02:08:59;15.00;;;2.47;;
17365;SDS011;8800;50.118;9.900;2024-01-27T02:11:26;13.43;;;2.72;;
17365;SDS011;8800;50.118;9.900;2024-01-27T02:13:52;11.00;;;2.50;;
17365;SDS011;8800;50.118;9.900;2024-01-27T02:16:19;15.45;;;2.50;;
17365;SDS011;8800;50.118;9.900;2024-01-27T02:18:47;15.70;;;3.33;;
17365;SDS011;8800;50.118;9.900;2024-01-27T02:21:13;11.32;;;2.45;;
17365;SDS011;8800;50.118;9.900;2024-01-27T02:23:40;17.35;;;3.53;;
17365;SDS011;8800;50.118;9.900;2024-01-27T02:26:08;16.52;;;3.83;;
17365;SDS011;8800;50.118;9.900;2024-01-27T02:28:34;13.82;;;4.03;;
17365;SDS011;8800;50.118;9.900;2024-01-27T02:31:01;13.50;;;3.97;;
17365;SDS011;8800;50.118;9.900;2024-01-27T02:33:28;13.43;;;2.88;;
17365;SDS011;8800;50.118;9.900;2024-01-27T02:35:54;15.02;;;4.72;;
17365;SDS011;8800;50.118;9.900;2024-01-27T02:38:21;23.58;;;5.55;;
17365;SDS011;8800;50.118;9.900;2024-01-27T02:40:47;13.55;;;3.10;;
17365;SDS011;8800;50.118;9.900;2024-01-27T02:43:15;13.50;;;2.90;;
17365;SDS011;8800;50.118;9.900;2024-01-27T02:45:42;14.07;;;2.42;;
17365;SDS011;8800;50.118;9.900;2024-01-27T02:48:08;16.40;;;3.22;;
17365;SDS011;8800;50.118;9.900;2024-01-27T02:50:35;22.00;;;5.75;;
17365;SDS011;8800;50.118;9.900;2024-01-27T02:53:01;16.55;;;3.33;;
17365;SDS011;8800;50.118;9.900;2024-01-27T02:55:28;22.50;;;4.45;;
17365;SDS011;8800;50.118;9.900;2024-01-27T02:57:54;23.98;;;4.50;;
17365;SDS011;8800;50.118;9.900;2024-01-27T03:00:22;17.17;;;3.33;;
17365;SDS011;8800;50.118;9.900;2024-01-27T03:02:48;22.75;;;5.32;;
17365;SDS011;8800;50.118;9.900;2024-01-27T03:05:15;22.05;;;5.22;;
17365;SDS011;8800;50.118;9.900;2024-01-27T03:07:41;22.85;;;4.93;;
17365;SDS011;8800;50.118;9.900;2024-01-27T03:10:08;14.52;;;3.80;;
17365;SDS011;8800;50.118;9.900;2024-01-27T03:12:36;20.02;;;3.85;;
17365;SDS011;8800;50.118;9.900;2024-01-27T03:15:02;17.17;;;4.05;;
17365;SDS011;8800;50.118;9.900;2024-01-27T03:17:30;23.50;;;5.35;;
17365;SDS011;8800;50.118;9.900;2024-01-27T03:19:57;20.10;;;3.92;;
17365;SDS011;8800;50.118;9.900;2024-01-27T03:22:23;12.82;;;2.53;;
17365;SDS011;8800;50.118;9.900;2024-01-27T03:24:50;15.02;;;3.42;;
17365;SDS011;8800;50.118;9.900;2024-01-27T03:27:18;11.75;;;2.40;;
17365;SDS011;8800;50.118;9.900;2024-01-27T03:29:44;19.20;;;3.90;;
17365;SDS011;8800;50.118;9.900;2024-01-27T03:32:11;14.95;;;3.00;;
17365;SDS011;8800;50.118;9.900;2024-01-27T03:34:41;13.95;;;2.78;;
17365;SDS011;8800;50.118;9.900;2024-01-27T03:37:07;19.60;;;3.10;;
17365;SDS011;8800;50.118;9.900;2024-01-27T03:39:34;18.30;;;3.30;;
17365;SDS011;8800;50.118;9.900;2024-01-27T03:42:00;18.50;;;3.75;;
17365;SDS011;8800;50.118;9.900;2024-01-27T03:44:27;14.27;;;2.97;;
17365;SDS011;8800;50.118;9.900;2024-01-27T03:46:53;14.65;;;2.58;;
17365;SDS011;8800;50.118;9.900;2024-01-27T03:49:20;15.82;;;3.13;;
17365;SDS011;8800;50.118;9.900;2024-01-27T03:51:47;11.60;;;2.05;;
17365;SDS011;8800;50.118;9.900;2024-01-27T03:54:14;13.30;;;2.30;;
17365;SDS011;8800;50.118;9.900;2024-01-27T03:56:41;12.02;;;3.03;;
17365;SDS011;8800;50.118;9.900;2024-01-27T03:59:07;13.27;;;2.70;;
17365;SDS011;8800;50.118;9.900;2024-01-27T04:01:36;10.70;;;1.90;;
17365;SDS011;8800;50.118;9.900;2024-01-27T04:04:02;12.05;;;2.28;;
17365;SDS011;8800;50.118;9.900;2024-01-27T04:06:29;18.58;;;2.78;;
17365;SDS011;8800;50.118;9.900;2024-01-27T04:08:57;20.67;;;3.67;;
17365;SDS011;8800;50.118;9.900;2024-01-27T04:11:23;16.83;;;4.18;;
17365;SDS011;8800;50.118;9.900;2024-01-27T04:13:50;17.42;;;4.45;;
17365;SDS011;8800;50.118;9.900;2024-01-27T04:16:17;18.30;;;4.63;;
17365;SDS011;8800;50.118;9.900;2024-01-27T04:18:43;14.98;;;4.00;;
17365;SDS011;8800;50.118;9.900;2024-01-27T04:21:09;18.10;;;4.13;;
17365;SDS011;8800;50.118;9.900;2024-01-27T04:23:36;32.22;;;11.25;;
17365;SDS011;8800;50.118;9.900;2024-01-27T04:26:04;21.52;;;5.68;;
17365;SDS011;8800;50.118;9.900;2024-01-27T04:28:31;19.02;;;5.18;;
17365;SDS011;8800;50.118;9.900;2024-01-27T04:30:58;19.92;;;4.68;;
17365;SDS011;8800;50.118;9.900;2024-01-27T04:33:24;13.95;;;3.72;;
17365;SDS011;8800;50.118;9.900;2024-01-27T04:35:51;14.77;;;3.60;;
17365;SDS011;8800;50.118;9.900;2024-01-27T04:38:18;10.98;;;2.72;;
17365;SDS011;8800;50.118;9.900;2024-01-27T04:40:44;7.15;;;2.42;;
17365;SDS011;8800;50.118;9.900;2024-01-27T04:43:15;11.07;;;2.15;;
17365;SDS011;8800;50.118;9.900;2024-01-27T04:45:42;12.10;;;2.10;;
17365;SDS011;8800;50.118;9.900;2024-01-27T04:48:08;9.82;;;2.13;;
17365;SDS011;8800;50.118;9.900;2024-01-27T04:50:35;13.10;;;2.40;;
17365;SDS011;8800;50.118;9.900;2024-01-27T04:53:02;7.47;;;2.08;;
17365;SDS011;8800;50.118;9.900;2024-01-27T04:55:28;6.65;;;2.30;;
17365;SDS011;8800;50.118;9.900;2024-01-27T04:57:55;10.00;;;2.30;;
17365;SDS011;8800;50.118;9.900;2024-01-27T05:00:25;14.23;;;2.67;;
17365;SDS011;8800;50.118;9.900;2024-01-27T05:02:52;6.18;;;2.17;;
17365;SDS011;8800;50.118;9.900;2024-01-27T05:05:19;10.15;;;2.35;;
17365;SDS011;8800;50.118;9.900;2024-01-27T05:07:45;6.95;;;2.33;;
17365;SDS011;8800;50.118;9.900;2024-01-27T05:10:14;10.55;;;2.50;;
17365;SDS011;8800;50.118;9.900;2024-01-27T05:12:40;9.32;;;2.38;;
17365;SDS011;8800;50.118;9.900;2024-01-27T05:15:07;9.75;;;2.30;;
17365;SDS011;8800;50.118;9.900;2024-01-27T05:17:35;7.72;;;2.47;;
17365;SDS011;8800;50.118;9.900;2024-01-27T05:20:02;11.55;;;2.90;;
17365;SDS011;8800;50.118;9.900;2024-01-27T05:22:29;9.25;;;2.70;;
17365;SDS011;8800;50.118;9.900;2024-01-27T05:24:56;9.32;;;2.70;;
17365;SDS011;8800;50.118;9.900;2024-01-27T05:27:23;10.10;;;2.60;;
17365;SDS011;8800;50.118;9.900;2024-01-27T05:29:49;8.43;;;2.63;;
17365;SDS011;8800;50.118;9.900;2024-01-27T05:32:16;10.30;;;3.08;;
17365;SDS011;8800;50.118;9.900;2024-01-27T05:34:45;12.35;;;3.08;;
17365;SDS011;8800;50.118;9.900;2024-01-27T05:37:11;11.25;;;3.28;;
17365;SDS011;8800;50.118;9.900;2024-01-27T05:39:38;8.85;;;3.03;;
17365;SDS011;8800;50.118;9.900;2024-01-27T05:42:04;14.82;;;3.05;;
17365;SDS011;8800;50.118;9.900;2024-01-27T05:44:31;8.48;;;2.55;;
17365;SDS011;8800;50.118;9.900;2024-01-27T05:46:58;8.43;;;3.30;;
17365;SDS011;8800;50.118;9.900;2024-01-27T05:49:24;15.27;;;3.10;;
17365;SDS011;8800;50.118;9.900;2024-01-27T05:51:52;14.60;;;3.22;;
17365;SDS011;8800;50.118;9.900;2024-01-27T05:54:19;9.88;;;3.10;;
17365;SDS011;8800;50.118;9.900;2024-01-27T05:56:45;10.23;;;3.40;;
17365;SDS011;8800;50.118;9.900;2024-01-27T05:59:12;7.78;;;3.42;;
17365;SDS011;8800;50.118;9.900;2024-01-27T06:01:38;18.90;;;3.80;;
17365;SDS011;8800;50.118;9.900;2024-01-27T06:04:06;14.55;;;3.78;;
17365;SDS011;8800;50.118;9.900;2024-01-27T06:06:32;13.85;;;3.67;;
17365;SDS011;8800;50.118;9.900;2024-01-27T06:09:00;11.60;;;3.45;;
17365;SDS011;8800;50.118;9.900;2024-01-27T06:11:29;15.85;;;3.88;;
17365;SDS011;8800;50.118;9.900;2024-01-27T06:13:55;14.00;;;3.55;;
17365;SDS011;8800;50.118;9.900;2024-01-27T06:16:23;14.88;;;3.58;;
17365;SDS011;8800;50.118;9.900;2024-01-27T06:18:49;15.48;;;3.03;;
17365;SDS011;8800;50.118;9.900;2024-01-27T06:21:16;12.05;;;2.60;;
17365;SDS011;8800;50.118;9.900;2024-01-27T06:23:42;16.02;;;3.42;;
17365;SDS011;8800;50.118;9.900;2024-01-27T06:26:12;12.38;;;2.75;;
17365;SDS011;8800;50.118;9.900;2024-01-27T06:28:39;12.40;;;2.50;;
17365;SDS011;8800;50.118;9.900;2024-01-27T06:31:06;13.02;;;2.58;;
17365;SDS011;8800;50.118;9.900;2024-01-27T06:33:32;13.93;;;2.75;;
17365;SDS011;8800;50.118;9.900;2024-01-27T06:35:59;16.40;;;2.90;;
17365;SDS011;8800;50.118;9.900;2024-01-27T06:38:26;13.63;;;3.20;;
17365;SDS011;8800;50.118;9.900;2024-01-27T06:40:52;9.15;;;3.30;;
17365;SDS011;8800;50.118;9.900;2024-01-27T06:43:20;12.52;;;2.72;;
17365;SDS011;8800;50.118;9.900;2024-01-27T06:45:48;12.00;;;3.10;;
17365;SDS011;8800;50.118;9.900;2024-01-27T06:48:14;10.40;;;3.67;;
17365;SDS011;8800;50.118;9.900;2024-01-27T06:50:41;14.85;;;4.10;;
17365;SDS011;8800;50.118;9.900;2024-01-27T06:53:07;18.90;;;3.70;;
17365;SDS011;8800;50.118;9.900;2024-01-27T06:55:35;16.80;;;4.25;;
17365;SDS011;8800;50.118;9.900;2024-01-27T06:58:02;31.73;;;9.98;;
17365;SDS011;8800;50.118;9.900;2024-01-27T07:00:30;18.90;;;6.32;;
17365;SDS011;8800;50.118;9.900;2024-01-27T07:02:57;21.98;;;5.28;;
17365;SDS011;8800;50.118;9.900;2024-01-27T07:05:24;16.10;;;4.65;;
17365;SDS011;8800;50.118;9.900;2024-01-27T07:07:51;17.33;;;5.65;;
17365;SDS011;8800;50.118;9.900;2024-01-27T07:10:17;15.95;;;5.38;;
17365;SDS011;8800;50.118;9.900;2024-01-27T07:12:44;19.73;;;4.38;;
17365;SDS011;8800;50.118;9.900;2024-01-27T07:15:11;16.25;;;4.32;;
17365;SDS011;8800;50.118;9.900;2024-01-27T07:17:38;15.25;;;4.18;;
17365;SDS011;8800;50.118;9.900;2024-01-27T07:20:05;14.25;;;4.57;;
17365;SDS011;8800;50.118;9.900;2024-01-27T07:22:33;17.02;;;4.50;;
17365;SDS011;8800;50.118;9.900;2024-01-27T07:24:59;12.90;;;3.65;;
17365;SDS011;8800;50.118;9.900;2024-01-27T07:27:26;19.08;;;4.13;;
17365;SDS011;8800;50.118;9.900;2024-01-27T07:29:53;17.17;;;4.22;;
17365;SDS011;8800;50.118;9.900;2024-01-27T07:32:19;16.10;;;3.90;;
17365;SDS011;8800;50.118;9.900;2024-01-27T07:34:49;14.68;;;4.10;;
17365;SDS011;8800;50.118;9.900;2024-01-27T07:37:15;9.00;;;3.08;;
17365;SDS011;8800;50.118;9.900;2024-01-27T07:39:42;19.85;;;5.68;;
17365;SDS011;8800;50.118;9.900;2024-01-27T07:42:08;14.38;;;4.55;;
17365;SDS011;8800;50.118;9.900;2024-01-27T07:44:35;16.23;;;4.57;;
17365;SDS011;8800;50.118;9.900;2024-01-27T07:47:01;13.57;;;4.05;;
17365;SDS011;8800;50.118;9.900;2024-01-27T07:49:28;15.40;;;4.72;;
17365;SDS011;8800;50.118;9.900;2024-01-27T07:51:56;16.35;;;5.25;;
17365;SDS011;8800;50.118;9.900;2024-01-27T07:54:23;23.30;;;5.75;;
17365;SDS011;8800;50.118;9.900;2024-01-27T07:56:49;22.70;;;7.90;;
17365;SDS011;8800;50.118;9.900;2024-01-27T07:59:16;20.58;;;8.25;;
17365;SDS011;8800;50.118;9.900;2024-01-27T08:01:42;21.23;;;8.55;;
17365;SDS011;8800;50.118;9.900;2024-01-27T08:04:09;17.08;;;8.07;;
17365;SDS011;8800;50.118;9.900;2024-01-27T08:06:45;22.05;;;6.93;;
17365;SDS011;8800;50.118;9.900;2024-01-27T08:09:14;19.33;;;7.38;;
17365;SDS011;8800;50.118;9.900;2024-01-27T08:11:41;23.17;;;7.38;;
17365;SDS011;8800;50.118;9.900;2024-01-27T08:14:07;22.85;;;8.77;;
17365;SDS011;8800;50.118;9.900;2024-01-27T08:16:34;22.40;;;8.48;;
17365;SDS011;8800;50.118;9.900;2024-01-27T08:19:01;22.60;;;9.02;;
17365;SDS011;8800;50.118;9.900;2024-01-27T08:21:28;23.63;;;7.95;;
17365;SDS011;8800;50.118;9.900;2024-01-27T08:23:54;14.20;;;4.57;;
17365;SDS011;8800;50.118;9.900;2024-01-27T08:26:22;15.93;;;4.18;;
17365;SDS011;8800;50.118;9.900;2024-01-27T08:28:49;13.52;;;3.92;;
17365;SDS011;8800;50.118;9.900;2024-01-27T08:31:15;21.35;;;3.60;;
17365;SDS011;8800;50.118;9.900;2024-01-27T08:33:42;17.48;;;5.00;;
17365;SDS011;8800;50.118;9.900;2024-01-27T08:36:12;19.15;;;4.95;;
17365;SDS011;8800;50.118;9.900;2024-01-27T08:38:39;17.73;;;6.22;;
17365;SDS011;8800;50.118;9.900;2024-01-27T08:41:05;17.67;;;5.57;;
17365;SDS011;8800;50.118;9.900;2024-01-27T08:43:33;21.38;;;5.25;;
17365;SDS011;8800;50.118;9.900;2024-01-27T08:46:00;28.27;;;7.13;;
17365;SDS011;8800;50.118;9.900;2024-01-27T08:48:27;20.55;;;6.10;;
17365;SDS011;8800;50.118;9.900;2024-01-27T08:50:53;17.70;;;6.53;;
17365;SDS011;8800;50.118;9.900;2024-01-27T08:53:20;15.90;;;5.35;;
17365;SDS011;8800;50.118;9.900;2024-01-27T08:55:46;16.55;;;5.35;;
17365;SDS011;8800;50.118;9.900;2024-01-27T08:58:13;16.13;;;5.50;;
17365;SDS011;8800;50.118;9.900;2024-01-27T09:00:41;13.43;;;5.13;;
17365;SDS011;8800;50.118;9.900;2024-01-27T09:03:07;10.68;;;4.57;;
17365;SDS011;8800;50.118;9.900;2024-01-27T09:05:34;22.98;;;5.88;;
17365;SDS011;8800;50.118;9.900;2024-01-27T09:08:00;17.75;;;5.38;;
17365;SDS011;8800;50.118;9.900;2024-01-27T09:10:27;21.85;;;5.95;;
17365;SDS011;8800;50.118;9.900;2024-01-27T09:12:54;18.60;;;5.32;;
17365;SDS011;8800;50.118;9.900;2024-01-27T09:15:20;11.07;;;5.70;;
17365;SDS011;8800;50.118;9.900;2024-01-27T09:17:48;20.20;;;5.93;;
17365;SDS011;8800;50.118;9.900;2024-01-27T09:20:15;16.02;;;5.70;;
17365;SDS011;8800;50.118;9.900;2024-01-27T09:22:41;14.93;;;4.60;;
17365;SDS011;8800;50.118;9.900;2024-01-27T09:25:09;23.27;;;7.22;;
17365;SDS011;8800;50.118;9.900;2024-01-27T09:27:36;27.10;;;8.82;;
17365;SDS011;8800;50.118;9.900;2024-01-27T09:30:03;17.83;;;6.10;;
17365;SDS011;8800;50.118;9.900;2024-01-27T09:32:30;37.38;;;11.88;;
17365;SDS011;8800;50.118;9.900;2024-01-27T09:34:58;27.38;;;9.82;;
17365;SDS011;8800;50.118;9.900;2024-01-27T09:37:24;34.30;;;8.70;;
17365;SDS011;8800;50.118;9.900;2024-01-27T09:39:51;21.52;;;7.88;;
17365;SDS011;8800;50.118;9.900;2024-01-27T09:42:18;21.15;;;6.60;;
17365;SDS011;8800;50.118;9.900;2024-01-27T09:44:48;15.25;;;4.93;;
17365;SDS011;8800;50.118;9.900;2024-01-27T09:47:14;23.33;;;5.93;;
17365;SDS011;8800;50.118;9.900;2024-01-27T09:49:41;16.33;;;4.80;;
17365;SDS011;8800;50.118;9.900;2024-01-27T09:52:09;19.65;;;5.85;;
17365;SDS011;8800;50.118;9.900;2024-01-27T09:54:36;19.90;;;6.45;;
17365;SDS011;8800;50.118;9.900;2024-01-27T09:57:03;20.27;;;5.57;;
17365;SDS011;8800;50.118;9.900;2024-01-27T09:59:30;16.77;;;3.30;;
17365;SDS011;8800;50.118;9.900;2024-01-27T10:01:58;14.25;;;3.97;;
17365;SDS011;8800;50.118;9.900;2024-01-27T10:04:25;18.60;;;4.13;;
17365;SDS011;8800;50.118;9.900;2024-01-27T10:06:53;15.18;;;4.38;;
17365;SDS011;8800;50.118;9.900;2024-01-27T10:09:22;13.88;;;3.83;;
17365;SDS011;8800;50.118;9.900;2024-01-27T10:11:48;14.23;;;3.70;;
17365;SDS011;8800;50.118;9.900;2024-01-27T10:14:15;12.32;;;3.20;;
17365;SDS011;8800;50.118;9.900;2024-01-27T10:16:42;20.60;;;2.97;;
17365;SDS011;8800;50.118;9.900;2024-01-27T10:19:11;7.95;;;2.60;;
17365;SDS011;8800;50.118;9.900;2024-01-27T10:21:38;15.27;;;3.53;;
17365;SDS011;8800;50.118;9.900;2024-01-27T10:24:05;12.85;;;3.45;;
17365;SDS011;8800;50.118;9.900;2024-01-27T10:26:34;17.60;;;4.03;;
17365;SDS011;8800;50.118;9.900;2024-01-27T10:29:01;16.50;;;3.83;;
17365;SDS011;8800;50.118;9.900;2024-01-27T10:31:28;18.27;;;4.07;;
17365;SDS011;8800;50.118;9.900;2024-01-27T10:33:55;21.95;;;4.07;;
17365;SDS011;8800;50.118;9.900;2024-01-27T10:36:22;15.30;;;3.70;;
17365;SDS011;8800;50.118;9.900;2024-01-27T10:38:49;18.23;;;3.40;;
17365;SDS011;8800;50.118;9.900;2024-01-27T10:41:24;17.17;;;3.45;;
17365;SDS011;8800;50.118;9.900;2024-01-27T10:43:54;11.63;;;2.85;;
17365;SDS011;8800;50.118;9.900;2024-01-27T10:46:22;18.48;;;4.10;;
17365;SDS011;8800;50.118;9.900;2024-01-27T10:48:49;17.50;;;2.70;;
17365;SDS011;8800;50.118;9.900;2024-01-27T10:51:16;10.43;;;2.63;;
17365;SDS011;8800;50.118;9.900;2024-01-27T10:53:44;15.93;;;2.67;;
17365;SDS011;8800;50.118;9.900;2024-01-27T10:56:15;13.35;;;2.95;;
17365;SDS011;8800;50.118;9.900;2024-01-27T10:58:41;14.20;;;2.45;;
17365;SDS011;8800;50.118;9.900;2024-01-27T11:01:10;15.48;;;2.42;;
17365;SDS011;8800;50.118;9.900;2024-01-27T11:03:38;17.38;;;2.95;;
17365;SDS011;8800;50.118;9.900;2024-01-27T11:06:04;19.80;;;3.17;;
17365;SDS011;8800;50.118;9.900;2024-01-27T11:08:32;13.15;;;2.80;;
17365;SDS011;8800;50.118;9.900;2024-01-27T11:10:59;16.60;;;2.28;;
17365;SDS011;8800;50.118;9.900;2024-01-27T11:13:26;15.95;;;3.25;;
17365;SDS011;8800;50.118;9.900;2024-01-27T11:15:53;13.38;;;2.88;;
17365;SDS011;8800;50.118;9.900;2024-01-27T11:18:22;17.77;;;2.95;;
17365;SDS011;8800;50.118;9.900;2024-01-27T11:20:48;13.82;;;3.00;;
17365;SDS011;8800;50.118;9.900;2024-01-27T11:23:14;13.90;;;2.55;;
17365;SDS011;8800;50.118;9.900;2024-01-27T11:25:41;13.27;;;2.22;;
17365;SDS011;8800;50.118;9.900;2024-01-27T11:28:11;10.43;;;2.60;;
17365;SDS011;8800;50.118;9.900;2024-01-27T11:30:38;15.05;;;2.42;;
17365;SDS011;8800;50.118;9.900;2024-01-27T11:33:05;15.60;;;3.45;;
17365;SDS011;8800;50.118;9.900;2024-01-27T11:35:34;14.02;;;2.88;;
17365;SDS011;8800;50.118;9.900;2024-01-27T11:38:01;17.40;;;2.88;;
17365;SDS011;8800;50.118;9.900;2024-01-27T11:40:27;10.32;;;2.28;;
17365;SDS011;8800;50.118;9.900;2024-01-27T11:42:54;11.65;;;2.20;;
17365;SDS011;8800;50.118;9.900;2024-01-27T11:45:22;15.23;;;2.28;;
17365;SDS011;8800;50.118;9.900;2024-01-27T11:47:48;16.67;;;4.57;;
17365;SDS011;8800;50.118;9.900;2024-01-27T11:50:16;12.32;;;2.45;;
17365;SDS011;8800;50.118;9.900;2024-01-27T11:52:45;10.93;;;2.75;;
17365;SDS011;8800;50.118;9.900;2024-01-27T11:55:11;10.75;;;2.10;;
17365;SDS011;8800;50.118;9.900;2024-01-27T11:57:40;7.63;;;2.10;;
17365;SDS011;8800;50.118;9.900;2024-01-27T12:00:07;17.02;;;2.25;;
17365;SDS011;8800;50.118;9.900;2024-01-27T12:02:34;15.00;;;3.42;;
17365;SDS011;8800;50.118;9.900;2024-01-27T12:05:01;12.05;;;2.25;;
17365;SDS011;8800;50.118;9.900;2024-01-27T12:07:27;8.80;;;1.90;;
17365;SDS011;8800;50.118;9.900;2024-01-27T12:09:55;13.40;;;2.17;;
17365;SDS011;8800;50.118;9.900;2024-01-27T12:12:22;11.55;;;2.60;;
17365;SDS011;8800;50.118;9.900;2024-01-27T12:14:49;13.38;;;2.78;;
17365;SDS011;8800;50.118;9.900;2024-01-27T12:17:16;12.77;;;2.35;;
17365;SDS011;8800;50.118;9.900;2024-01-27T12:19:45;10.68;;;2.63;;
17365;SDS011;8800;50.118;9.900;2024-01-27T12:22:20;14.98;;;3.60;;
17365;SDS011;8800;50.118;9.900;2024-01-27T12:24:47;10.27;;;2.20;;
17365;SDS011;8800;50.118;9.900;2024-01-27T12:27:15;10.35;;;2.10;;
17365;SDS011;8800;50.118;9.900;2024-01-27T12:29:42;14.77;;;2.47;;
17365;SDS011;8800;50.118;9.900;2024-01-27T12:32:08;9.40;;;2.13;;
17365;SDS011;8800;50.118;9.900;2024-01-27T12:34:39;11.00;;;2.47;;
17365;SDS011;8800;50.118;9.900;2024-01-27T12:37:05;11.27;;;2.70;;
17365;SDS011;8800;50.118;9.900;2024-01-27T12:39:33;14.90;;;2.67;;
17365;SDS011;8800;50.118;9.900;2024-01-27T12:42:00;13.57;;;3.55;;
17365;SDS011;8800;50.118;9.900;2024-01-27T12:44:28;11.45;;;2.85;;
17365;SDS011;8800;50.118;9.900;2024-01-27T12:46:54;11.23;;;2.88;;
17365;SDS011;8800;50.118;9.900;2024-01-27T12:49:22;12.38;;;4.03;;
17365;SDS011;8800;50.118;9.900;2024-01-27T12:51:49;9.90;;;3.55;;
17365;SDS011;8800;50.118;9.900;2024-01-27T12:54:15;14.13;;;3.85;;
17365;SDS011;8800;50.118;9.900;2024-01-27T12:56:42;9.65;;;3.38;;
17365;SDS011;8800;50.118;9.900;2024-01-27T12:59:08;10.80;;;3.63;;
17365;SDS011;8800;50.118;9.900;2024-01-27T13:01:37;12.18;;;4.38;;
17365;SDS011;8800;50.118;9.900;2024-01-27T13:04:02;9.98;;;3.53;;
17365;SDS011;8800;50.118;9.900;2024-01-27T13:06:29;10.88;;;3.45;;
17365;SDS011;8800;50.118;9.900;2024-01-27T13:08:55;15.38;;;4.80;;
17365;SDS011;8800;50.118;9.900;2024-01-27T13:11:22;10.23;;;3.45;;
17365;SDS011;8800;50.118;9.900;2024-01-27T13:13:49;14.48;;;3.50;;
17365;SDS011;8800;50.118;9.900;2024-01-27T13:16:16;11.80;;;3.90;;
17365;SDS011;8800;50.118;9.900;2024-01-27T13:18:43;10.88;;;3.47;;
17365;SDS011;8800;50.118;9.900;2024-01-27T13:21:11;12.88;;;3.78;;
17365;SDS011;8800;50.118;9.900;2024-01-27T13:23:37;9.35;;;3.30;;
17365;SDS011;8800;50.118;9.900;2024-01-27T13:26:04;12.18;;;3.47;;
17365;SDS011;8800;50.118;9.900;2024-01-27T13:28:31;11.15;;;3.42;;
17365;SDS011;8800;50.118;9.900;2024-01-27T13:30:57;9.63;;;2.80;;
17365;SDS011;8800;50.118;9.900;2024-01-27T13:33:23;12.25;;;3.67;;
17365;SDS011;8800;50.118;9.900;2024-01-27T13:35:52;13.15;;;3.70;;
17365;SDS011;8800;50.118;9.900;2024-01-27T13:38:18;11.60;;;3.80;;
17365;SDS011;8800;50.118;9.900;2024-01-27T13:40:48;16.25;;;3.85;;
17365;SDS011;8800;50.118;9.900;2024-01-27T13:43:15;8.05;;;2.80;;
17365;SDS011;8800;50.118;9.900;2024-01-27T13:45:41;11.48;;;3.75;;
17365;SDS011;8800;50.118;9.900;2024-01-27T13:48:09;9.00;;;3.25;;
17365;SDS011;8800;50.118;9.900;2024-01-27T13:50:38;9.95;;;3.58;;
17365;SDS011;8800;50.118;9.900;2024-01-27T13:53:06;10.65;;;3.58;;
17365;SDS011;8800;50.118;9.900;2024-01-27T13:55:32;13.23;;;4.25;;
17365;SDS011;8800;50.118;9.900;2024-01-27T13:57:59;10.68;;;3.45;;
17365;SDS011;8800;50.118;9.900;2024-01-27T14:00:26;10.52;;;3.28;;
17365;SDS011;8800;50.118;9.900;2024-01-27T14:02:52;11.70;;;3.50;;
17365;SDS011;8800;50.118;9.900;2024-01-27T14:05:19;10.82;;;3.85;;
17365;SDS011;8800;50.118;9.900;2024-01-27T14:07:46;8.90;;;2.90;;
17365;SDS011;8800;50.118;9.900;2024-01-27T14:10:14;13.25;;;4.18;;
17365;SDS011;8800;50.118;9.900;2024-01-27T14:12:41;11.27;;;4.18;;
17365;SDS011;8800;50.118;9.900;2024-01-27T14:15:08;11.40;;;3.33;;
17365;SDS011;8800;50.118;9.900;2024-01-27T14:17:35;11.30;;;4.28;;
17365;SDS011;8800;50.118;9.900;2024-01-27T14:20:02;11.20;;;3.88;;
17365;SDS011;8800;50.118;9.900;2024-01-27T14:22:29;14.25;;;3.15;;
17365;SDS011;8800;50.118;9.900;2024-01-27T14:24:55;14.15;;;5.32;;
17365;SDS011;8800;50.118;9.900;2024-01-27T14:27:23;13.00;;;4.13;;
17365;SDS011;8800;50.118;9.900;2024-01-27T14:29:52;18.88;;;8.20;;
17365;SDS011;8800;50.118;9.900;2024-01-27T14:32:18;13.13;;;3.90;;
17365;SDS011;8800;50.118;9.900;2024-01-27T14:34:48;11.10;;;3.42;;
17365;SDS011;8800;50.118;9.900;2024-01-27T14:37:14;18.35;;;9.35;;
17365;SDS011;8800;50.118;9.900;2024-01-27T14:39:42;9.85;;;3.70;;
17365;SDS011;8800;50.118;9.900;2024-01-27T14:42:10;11.20;;;3.28;;
17365;SDS011;8800;50.118;9.900;2024-01-27T14:44:38;15.10;;;3.45;;
17365;SDS011;8800;50.118;9.900;2024-01-27T14:47:04;9.85;;;3.50;;